Time;durP1;ratioP1;P1;durP2;ratioP2;P2;SDS_P1;SDS_P2;PMS_P1;PMS_P2;Temp;Humidity;BMP_temperature;BMP_pressure;BME280_temperature;BME280_humidity;BME280_pressure;Samples;Min_cycle;Max_cycle;Signal;HPM_P1;HPM_P2
2023/10/22 00:01:27;;;;;;;6.05;1.80;;;12.90;99.90;;;;;;5076562;28;20047;-69
2023/10/22 00:03:54;;;;;;;4.80;1.50;;;12.90;99.90;;;;;;5076848;28;20048;-69
2023/10/22 00:06:21;;;;;;;4.05;1.50;;;13.00;99.90;;;;;;5076343;28;20056;-69
2023/10/22 00:08:49;;;;;;;5.35;1.70;;;12.90;99.90;;;;;;5076977;28;20549;-69
2023/10/22 00:11:16;;;;;;;4.80;1.27;;;12.90;99.90;;;;;;5076721;28;20089;-69
2023/10/22 00:13:42;;;;;;;3.72;1.42;;;12.90;99.90;;;;;;5072201;28;20484;-69
2023/10/22 00:16:09;;;;;;;4.47;1.27;;;13.00;99.90;;;;;;5076264;28;20755;-69
2023/10/22 00:18:36;;;;;;;6.95;1.27;;;13.00;99.90;;;;;;5076901;28;20097;-69
2023/10/22 00:21:07;;;;;;;4.55;1.23;;;13.00;99.90;;;;;;5075740;28;20056;-69
2023/10/22 00:23:34;;;;;;;3.50;1.52;;;13.00;99.90;;;;;;5076563;28;20488;-68
2023/10/22 00:26:03;;;;;;;5.47;1.77;;;13.00;99.90;;;;;;5076570;28;20109;-69
2023/10/22 00:28:30;;;;;;;4.50;1.30;;;13.00;99.90;;;;;;5075843;28;20109;-69
2023/10/22 00:30:57;;;;;;;3.63;1.25;;;13.00;99.90;;;;;;5076327;28;20056;-70
2023/10/22 00:33:24;;;;;;;4.68;1.55;;;13.00;99.90;;;;;;5076363;28;20083;-68
2023/10/22 00:35:58;;;;;;;5.00;1.67;;;13.00;99.90;;;;;;5075859;28;20056;-70
2023/10/22 00:38:26;;;;;;;3.63;1.38;;;13.00;99.90;;;;;;5076297;28;20076;-70
2023/10/22 00:40:53;;;;;;;3.30;1.40;;;13.00;99.90;;;;;;5070854;28;20130;-69
2023/10/22 00:43:21;;;;;;;5.53;1.23;;;13.00;99.90;;;;;;5075652;28;20052;-69
2023/10/22 00:45:49;;;;;;;3.95;1.23;;;13.00;99.90;;;;;;5075828;28;20104;-70
2023/10/22 00:48:18;;;;;;;3.65;1.38;;;13.00;99.90;;;;;;5075546;28;20508;-69
2023/10/22 00:50:45;;;;;;;3.75;1.52;;;13.00;99.90;;;;;;5076105;28;20052;-70
2023/10/22 00:53:15;;;;;;;4.75;1.38;;;13.00;99.90;;;;;;5075795;28;20047;-70
2023/10/22 00:55:45;;;;;;;3.40;1.23;;;13.00;99.90;;;;;;5075405;28;20059;-69
2023/10/22 00:58:13;;;;;;;4.83;1.40;;;13.10;99.90;;;;;;5075821;28;20040;-70
2023/10/22 01:00:42;;;;;;;4.78;1.00;;;13.00;99.90;;;;;;5072182;28;20651;-71
2023/10/22 01:03:09;;;;;;;6.68;1.35;;;13.00;99.90;;;;;;5071639;28;20056;-70
2023/10/22 01:05:37;;;;;;;4.90;1.67;;;13.00;99.90;;;;;;5072425;28;20087;-70
2023/10/22 01:08:05;;;;;;;4.30;1.33;;;13.00;99.90;;;;;;5069991;28;20515;-70
2023/10/22 01:10:32;;;;;;;3.55;1.17;;;13.10;99.90;;;;;;5072039;28;20084;-70
2023/10/22 01:12:59;;;;;;;3.50;1.38;;;13.10;99.90;;;;;;5068083;28;20064;-71
2023/10/22 01:15:27;;;;;;;3.65;1.08;;;13.10;99.90;;;;;;5071794;28;20056;-70
2023/10/22 01:17:55;;;;;;;2.25;0.70;;;13.10;99.90;;;;;;5072788;28;20459;-71
2023/10/22 01:20:22;;;;;;;11.45;1.38;;;13.10;99.90;;;;;;5071909;28;20056;-70
2023/10/22 01:22:49;;;;;;;2.38;1.05;;;13.20;99.90;;;;;;5071923;28;20052;-69
2023/10/22 01:25:18;;;;;;;3.83;1.00;;;13.10;99.90;;;;;;5071203;28;20059;-70
2023/10/22 01:27:45;;;;;;;3.58;1.70;;;13.20;99.90;;;;;;5071917;28;20408;-69
2023/10/22 01:30:12;;;;;;;2.80;0.90;;;13.00;99.90;;;;;;5071392;28;20056;-69
2023/10/22 01:32:39;;;;;;;5.90;1.80;;;12.80;99.90;;;;;;5071877;28;20052;-70
2023/10/22 01:35:07;;;;;;;5.13;1.20;;;12.80;99.90;;;;;;5071954;28;20059;-70
2023/10/22 01:37:36;;;;;;;1.67;0.80;;;12.70;99.90;;;;;;5071129;28;20049;-68
2023/10/22 01:40:04;;;;;;;3.88;1.00;;;12.80;99.90;;;;;;5071676;28;20040;-69
2023/10/22 01:42:32;;;;;;;4.53;1.00;;;12.80;99.90;;;;;;5071796;28;20472;-69
2023/10/22 01:44:59;;;;;;;2.75;0.98;;;12.70;99.90;;;;;;5071135;28;20098;-70
2023/10/22 01:47:26;;;;;;;5.53;1.05;;;12.70;99.90;;;;;;5071567;28;20055;-70
2023/10/22 01:49:53;;;;;;;4.80;1.15;;;12.70;99.90;;;;;;5068174;28;20377;-69
2023/10/22 01:52:21;;;;;;;3.95;0.85;;;12.70;99.90;;;;;;5070878;28;20440;-69
2023/10/22 01:54:47;;;;;;;3.10;1.50;;;12.70;99.90;;;;;;5071584;28;20091;-70
2023/10/22 01:57:14;;;;;;;5.53;1.10;;;12.60;99.90;;;;;;5071246;28;20072;-70
2023/10/22 01:59:43;;;;;;;3.25;1.20;;;12.60;99.90;;;;;;5072347;28;20051;-69
2023/10/22 02:02:10;;;;;;;5.15;1.30;;;12.50;99.90;;;;;;5074395;28;20047;-69
2023/10/22 02:04:37;;;;;;;3.60;1.10;;;12.40;99.90;;;;;;5092524;28;20043;-69
2023/10/22 02:07:04;;;;;;;3.33;1.10;;;12.40;99.90;;;;;;5092027;28;20044;-69
2023/10/22 02:09:31;;;;;;;3.33;1.25;;;12.30;99.90;;;;;;5074231;28;20040;-69
2023/10/22 02:11:58;;;;;;;4.88;1.20;;;12.10;99.90;;;;;;5074371;28;20044;-69
2023/10/22 02:14:25;;;;;;;7.60;1.85;;;12.00;99.90;;;;;;5074034;28;20072;-71
2023/10/22 02:16:54;;;;;;;4.88;1.50;;;12.00;99.90;;;;;;5074519;28;20056;-70
2023/10/22 02:19:21;;;;;;;5.55;1.70;;;11.90;99.90;;;;;;5074505;28;20052;-70
2023/10/22 02:21:47;;;;;;;3.75;1.55;;;11.80;99.90;;;;;;5073896;28;20063;-70
2023/10/22 02:24:14;;;;;;;4.93;1.23;;;11.80;99.90;;;;;;5074463;28;20052;-69
2023/10/22 02:26:41;;;;;;;3.92;1.42;;;11.70;99.90;;;;;;5073875;28;20051;-70
2023/10/22 02:29:08;;;;;;;4.40;1.60;;;11.60;99.90;;;;;;5074223;28;20491;-69
2023/10/22 02:31:35;;;;;;;4.88;1.92;;;11.50;99.90;;;;;;5074198;28;20048;-70
2023/10/22 02:34:06;;;;;;;4.97;1.90;;;11.60;99.90;;;;;;5073900;28;20047;-69
2023/10/22 02:36:32;;;;;;;4.72;1.75;;;11.60;99.90;;;;;;5074205;28;20086;-69
2023/10/22 02:39:00;;;;;;;3.20;1.50;;;11.60;99.90;;;;;;5074537;28;20043;-69
2023/10/22 02:41:28;;;;;;;3.38;1.42;;;11.50;99.90;;;;;;5073644;28;20084;-68
2023/10/22 02:43:55;;;;;;;4.40;2.00;;;11.50;99.90;;;;;;5074345;28;20044;-68
2023/10/22 02:46:22;;;;;;;4.18;1.30;;;11.50;99.90;;;;;;5074234;28;20120;-69
2023/10/22 02:48:49;;;;;;;4.65;1.92;;;11.60;99.90;;;;;;5073663;28;20051;-68
2023/10/22 02:51:17;;;;;;;5.90;2.28;;;11.50;99.90;;;;;;5092130;28;20044;-70
2023/10/22 02:53:44;;;;;;;5.50;2.00;;;11.50;99.90;;;;;;5074276;28;20067;-70
2023/10/22 02:56:11;;;;;;;4.15;2.20;;;11.50;99.90;;;;;;5073667;28;20048;-70
2023/10/22 02:58:40;;;;;;;3.60;2.40;;;11.50;99.90;;;;;;5071720;28;20051;-70
2023/10/22 03:01:08;;;;;;;4.82;2.55;;;11.50;99.90;;;;;;5073690;28;20193;-70
2023/10/22 03:03:39;;;;;;;3.92;2.38;;;11.40;99.90;;;;;;5074148;28;20074;-70
2023/10/22 03:06:07;;;;;;;6.28;2.20;;;11.50;99.90;;;;;;5078070;28;20385;-69
2023/10/22 03:08:36;;;;;;;5.35;2.03;;;11.50;99.90;;;;;;5077872;28;20087;-69
2023/10/22 03:11:04;;;;;;;5.05;2.17;;;11.40;99.90;;;;;;5077290;28;20048;-70
2023/10/22 03:13:31;;;;;;;6.22;1.95;;;11.50;99.90;;;;;;5078126;28;20075;-70
2023/10/22 03:16:06;;;;;;;3.90;1.80;;;11.40;99.90;;;;;;5077149;28;20408;-70
2023/10/22 03:18:33;;;;;;;5.15;2.45;;;11.40;99.90;;;;;;5077796;28;20052;-69
2023/10/22 03:21:00;;;;;;;4.50;1.77;;;11.40;99.90;;;;;;5095747;28;20460;-70
2023/10/22 03:23:27;;;;;;;4.15;1.80;;;11.40;99.90;;;;;;5095076;28;20098;-70
2023/10/22 03:26:05;;;;;;;6.40;1.90;;;11.40;99.90;;;;;;5077780;28;20465;-68
2023/10/22 03:28:31;;;;;;;4.07;2.30;;;11.40;99.90;;;;;;5074646;28;20048;-70
2023/10/22 03:31:03;;;;;;;5.07;2.10;;;11.40;99.90;;;;;;5076712;28;20059;-70
2023/10/22 03:33:29;;;;;;;5.65;2.10;;;11.40;99.90;;;;;;5077412;28;20044;-69
2023/10/22 03:35:57;;;;;;;5.35;2.35;;;11.40;99.90;;;;;;5077327;28;20097;-69
2023/10/22 03:38:24;;;;;;;4.30;1.75;;;11.50;99.90;;;;;;5076877;28;20515;-69
2023/10/22 03:40:59;;;;;;;5.13;2.22;;;11.40;99.90;;;;;;5077278;28;20134;-69
2023/10/22 03:43:26;;;;;;;4.88;2.10;;;11.50;99.90;;;;;;5075260;28;20135;-70
2023/10/22 03:45:53;;;;;;;4.18;1.65;;;11.50;99.90;;;;;;5072688;28;20097;-69
2023/10/22 03:48:20;;;;;;;4.82;2.25;;;11.50;99.90;;;;;;5077300;28;20073;-69
2023/10/22 03:50:47;;;;;;;6.28;1.95;;;11.50;99.90;;;;;;5077281;28;20105;-69
2023/10/22 03:53:13;;;;;;;5.35;1.80;;;11.40;99.90;;;;;;5094519;28;20048;-70
2023/10/22 03:55:40;;;;;;;6.25;1.90;;;11.50;99.90;;;;;;5077341;28;20097;-70
2023/10/22 03:58:09;;;;;;;5.10;1.67;;;11.50;99.90;;;;;;5076501;28;20105;-70
2023/10/22 04:00:36;;;;;;;3.35;1.75;;;11.50;99.90;;;;;;5076897;28;20044;-70
2023/10/22 04:03:03;;;;;;;4.10;1.70;;;11.50;99.90;;;;;;5076599;28;20054;-70
2023/10/22 04:05:30;;;;;;;3.75;2.05;;;11.50;99.90;;;;;;5076450;28;20047;-69
2023/10/22 04:07:56;;;;;;;7.47;2.13;;;11.50;99.90;;;;;;5076492;28;20109;-69
2023/10/22 04:10:23;;;;;;;3.40;1.60;;;11.60;99.90;;;;;;5076565;28;20040;-69
2023/10/22 04:12:50;;;;;;;6.40;1.67;;;11.60;99.90;;;;;;5071868;28;20059;-69
2023/10/22 04:15:19;;;;;;;3.20;1.70;;;11.60;99.90;;;;;;5075145;28;20075;-69
2023/10/22 04:17:46;;;;;;;4.68;1.98;;;11.50;99.90;;;;;;5094553;28;20101;-69
2023/10/22 04:20:13;;;;;;;3.38;1.98;;;11.50;99.90;;;;;;5076104;28;20128;-70
2023/10/22 04:22:43;;;;;;;5.72;1.77;;;11.60;99.90;;;;;;5076306;28;20097;-71
2023/10/22 04:25:11;;;;;;;4.35;1.67;;;11.60;99.90;;;;;;5072547;28;20464;-70
2023/10/22 04:27:37;;;;;;;4.13;1.50;;;11.50;99.90;;;;;;5075868;28;20450;-70
2023/10/22 04:30:07;;;;;;;5.65;1.67;;;11.50;99.90;;;;;;5076347;28;20384;-70
2023/10/22 04:32:36;;;;;;;2.83;1.35;;;11.50;99.90;;;;;;5076100;28;20047;-69
2023/10/22 04:35:05;;;;;;;4.88;1.65;;;11.50;99.90;;;;;;5075728;28;20056;-69
2023/10/22 04:37:32;;;;;;;5.93;2.10;;;11.60;99.90;;;;;;5076007;28;20051;-70
2023/10/22 04:39:59;;;;;;;3.95;1.63;;;11.50;99.90;;;;;;5076187;28;20040;-70
2023/10/22 04:42:27;;;;;;;4.05;1.40;;;11.50;99.90;;;;;;5075682;28;20449;-70
2023/10/22 04:44:54;;;;;;;3.72;1.60;;;11.50;99.90;;;;;;5089915;28;20092;-69
2023/10/22 04:47:21;;;;;;;2.67;1.50;;;11.50;99.90;;;;;;5075431;28;20106;-70
2023/10/22 04:49:52;;;;;;;2.50;1.38;;;11.60;99.90;;;;;;5075927;28;20071;-70
2023/10/22 04:52:27;;;;;;;;;;;11.50;99.90;;;;;;5076449;28;20056;-69
2023/10/22 04:54:57;;;;;;;2.00;1.23;;;11.60;99.90;;;;;;5075474;28;20053;-70
2023/10/22 04:57:23;;;;;;;2.50;1.40;;;11.60;99.90;;;;;;5074909;28;20113;-71
2023/10/22 04:59:50;;;;;;;3.88;1.17;;;11.60;99.90;;;;;;5075604;28;20117;-70
2023/10/22 05:02:17;;;;;;;2.25;1.50;;;11.50;99.90;;;;;;5075139;28;20044;-69
2023/10/22 05:04:46;;;;;;;2.45;1.35;;;11.60;99.90;;;;;;5075870;28;20105;-69
2023/10/22 05:07:15;;;;;;;2.75;1.40;;;11.60;99.90;;;;;;5071996;28;20513;-70
2023/10/22 05:09:42;;;;;;;4.40;1.70;;;11.60;99.90;;;;;;5075054;28;20086;-70
2023/10/22 05:12:09;;;;;;;3.03;1.55;;;11.60;99.90;;;;;;5075777;28;20160;-70
2023/10/22 05:14:37;;;;;;;2.97;1.60;;;11.60;99.90;;;;;;5075226;28;20093;-70
2023/10/22 05:17:05;;;;;;;2.50;1.55;;;11.60;99.90;;;;;;5075049;28;20113;-70
2023/10/22 05:19:32;;;;;;;4.18;1.65;;;11.60;99.90;;;;;;5071339;28;20439;-70
2023/10/22 05:21:59;;;;;;;3.30;1.70;;;11.70;99.90;;;;;;5075098;28;20048;-70
2023/10/22 05:24:27;;;;;;;2.92;1.92;;;11.70;99.90;;;;;;5074622;28;20044;-69
2023/10/22 05:26:54;;;;;;;3.72;2.40;;;11.70;99.90;;;;;;5074846;28;20060;-69
2023/10/22 05:29:21;;;;;;;3.00;2.30;;;11.70;99.90;;;;;;5092581;28;20484;-69
2023/10/22 05:31:48;;;;;;;3.67;2.63;;;11.70;99.90;;;;;;5075121;28;20064;-70
2023/10/22 05:34:15;;;;;;;4.22;2.83;;;11.80;99.90;;;;;;5092958;28;20557;-70
2023/10/22 05:36:42;;;;;;;4.45;3.13;;;11.80;99.90;;;;;;5074285;28;20062;-71
2023/10/22 05:39:09;;;;;;;5.20;3.25;;;11.80;99.90;;;;;;5075039;28;20072;-70
2023/10/22 05:41:38;;;;;;;4.57;3.20;;;11.80;99.90;;;;;;5075091;28;20080;-70
2023/10/22 05:44:05;;;;;;;5.43;3.88;;;11.80;99.90;;;;;;5074378;28;20051;-70
2023/10/22 05:46:33;;;;;;;5.35;3.97;;;11.80;99.90;;;;;;5070645;28;20466;-70
2023/10/22 05:49:00;;;;;;;6.43;4.40;;;11.90;99.90;;;;;;5074764;28;20047;-69
2023/10/22 05:51:27;;;;;;;5.43;3.65;;;11.90;99.90;;;;;;5074482;28;20504;-69
2023/10/22 05:53:54;;;;;;;5.45;3.78;;;11.90;99.90;;;;;;5074719;28;20121;-68
2023/10/22 05:56:23;;;;;;;7.22;4.05;;;11.90;99.90;;;;;;5074738;28;20454;-70
2023/10/22 05:58:52;;;;;;;4.68;3.67;;;12.00;99.90;;;;;;5091897;28;20080;-70
2023/10/22 06:01:19;;;;;;;7.30;4.97;;;12.00;99.90;;;;;;5074153;28;20097;-69
2023/10/22 06:03:46;;;;;;;6.70;3.92;;;12.00;99.90;;;;;;5074697;28;20450;-69
2023/10/22 06:06:12;;;;;;;6.85;3.65;;;12.00;99.90;;;;;;5074135;28;20701;-70
2023/10/22 06:08:42;;;;;;;3.47;2.85;;;12.00;99.90;;;;;;5074355;28;20048;-69
2023/10/22 06:11:08;;;;;;;3.30;2.60;;;12.10;99.90;;;;;;5074295;28;20075;-69
2023/10/22 06:13:35;;;;;;;4.00;1.80;;;12.10;99.90;;;;;;5073684;28;20044;-69
2023/10/22 06:16:04;;;;;;;2.78;1.00;;;12.10;99.90;;;;;;5071878;28;20101;-68
2023/10/22 06:18:31;;;;;;;2.08;1.00;;;12.00;99.90;;;;;;5059377;28;20125;-70
2023/10/22 06:20:58;;;;;;;3.67;1.10;;;12.00;99.90;;;;;;5071080;28;20085;-70
2023/10/22 06:23:25;;;;;;;4.20;1.05;;;11.90;99.90;;;;;;5071720;28;20059;-70
2023/10/22 06:25:51;;;;;;;4.07;1.20;;;11.90;99.90;;;;;;5069606;28;20051;-69
2023/10/22 06:28:18;;;;;;;7.32;1.92;;;11.80;99.90;;;;;;5088546;28;21253;-68
2023/10/22 06:30:45;;;;;;;2.63;1.33;;;11.80;99.90;;;;;;5070042;28;20524;-68
2023/10/22 06:33:13;;;;;;;3.58;1.40;;;11.70;99.90;;;;;;5082425;28;20078;-70
2023/10/22 06:35:40;;;;;;;6.70;1.38;;;11.70;99.90;;;;;;5071997;28;20113;-69
2023/10/22 06:38:07;;;;;;;2.95;1.25;;;11.70;99.90;;;;;;5070567;28;20048;-69
2023/10/22 06:40:35;;;;;;;7.60;1.92;;;11.60;99.90;;;;;;5070929;28;20506;-71
2023/10/22 06:43:02;;;;;;;5.50;2.03;;;11.60;99.90;;;;;;5071309;28;20044;-69
2023/10/22 06:45:29;;;;;;;3.97;1.65;;;11.50;99.90;;;;;;5071784;28;20412;-69
2023/10/22 06:47:57;;;;;;;5.53;1.58;;;11.50;99.90;;;;;;5070033;28;20068;-70
2023/10/22 06:50:25;;;;;;;5.60;1.23;;;11.50;99.90;;;;;;5065665;28;20076;-70
2023/10/22 06:52:52;;;;;;;6.43;1.33;;;11.50;99.90;;;;;;5066745;28;20384;-69
2023/10/22 06:55:19;;;;;;;5.78;1.48;;;11.50;99.90;;;;;;5070020;28;20043;-69
2023/10/22 06:57:47;;;;;;;7.05;1.60;;;11.40;99.90;;;;;;5071259;28;20055;-68
2023/10/22 07:00:14;;;;;;;4.03;2.13;;;11.40;99.90;;;;;;5069718;28;20525;-69
2023/10/22 07:02:41;;;;;;;8.02;2.13;;;11.40;99.90;;;;;;5069411;28;20048;-69
2023/10/22 07:05:10;;;;;;;5.72;1.92;;;11.40;99.90;;;;;;5069333;28;20454;-69
2023/10/22 07:07:41;;;;;;;3.28;1.50;;;11.40;99.90;;;;;;5070093;28;20055;-69
2023/10/22 07:10:10;;;;;;;5.78;1.92;;;11.30;99.90;;;;;;5063933;28;20040;-69
2023/10/22 07:12:37;;;;;;;6.57;1.80;;;11.40;99.90;;;;;;5071533;28;20173;-69
2023/10/22 07:15:04;;;;;;;5.45;2.13;;;11.40;99.90;;;;;;5083811;28;20044;-71
2023/10/22 07:17:31;;;;;;;7.88;2.20;;;11.40;99.90;;;;;;5071711;28;20102;-69
2023/10/22 07:19:58;;;;;;;5.88;1.85;;;11.40;99.90;;;;;;5069299;28;20048;-68
2023/10/22 07:22:25;;;;;;;6.50;2.10;;;11.40;99.90;;;;;;5070603;28;20063;-69
2023/10/22 07:24:53;;;;;;;10.68;2.35;;;11.40;99.90;;;;;;5065697;28;20043;-69
2023/10/22 07:27:20;;;;;;;9.57;2.03;;;11.40;99.90;;;;;;5072651;28;20443;-69
2023/10/22 07:29:47;;;;;;;4.30;1.85;;;11.40;99.90;;;;;;5067349;28;20057;-68
2023/10/22 07:32:14;;;;;;;11.65;2.10;;;11.40;99.90;;;;;;5071513;28;20055;-68
2023/10/22 07:34:41;;;;;;;6.45;1.95;;;11.30;99.90;;;;;;5067760;28;20049;-69
2023/10/22 07:37:08;;;;;;;5.75;1.80;;;11.30;99.90;;;;;;5071098;28;20098;-67
2023/10/22 07:39:35;;;;;;;5.28;1.95;;;11.30;99.90;;;;;;5067771;28;20059;-69
2023/10/22 07:42:03;;;;;;;7.45;2.28;;;11.30;99.90;;;;;;5066591;28;20052;-69
2023/10/22 07:44:30;;;;;;;9.32;2.25;;;11.30;99.90;;;;;;5068200;28;20508;-70
2023/10/22 07:46:57;;;;;;;7.75;2.53;;;11.30;99.90;;;;;;5069800;28;20095;-69
2023/10/22 07:49:24;;;;;;;8.65;2.50;;;11.30;99.90;;;;;;5068349;28;20446;-69
2023/10/22 07:51:51;;;;;;;9.70;2.47;;;11.40;99.90;;;;;;5074372;28;20838;-69
2023/10/22 07:54:18;;;;;;;8.02;2.10;;;11.40;99.90;;;;;;5071423;28;20127;-70
2023/10/22 07:56:45;;;;;;;8.43;2.95;;;11.40;99.90;;;;;;5072759;28;20044;-69
2023/10/22 07:59:13;;;;;;;7.13;2.47;;;11.50;99.90;;;;;;5071270;28;20051;-69
2023/10/22 08:01:40;;;;;;;8.05;2.67;;;11.40;99.90;;;;;;5092079;28;20101;-69
2023/10/22 08:04:07;;;;;;;8.13;2.58;;;11.40;99.90;;;;;;5070550;28;20040;-69
2023/10/22 08:06:34;;;;;;;7.20;2.80;;;11.40;99.90;;;;;;5071332;28;20079;-70
2023/10/22 08:09:01;;;;;;;9.15;2.55;;;11.50;99.90;;;;;;5071702;28;20040;-69
2023/10/22 08:11:28;;;;;;;6.93;3.00;;;11.50;99.90;;;;;;5072625;28;20047;-69
2023/10/22 08:13:55;;;;;;;10.73;3.90;;;11.50;99.90;;;;;;5071711;28;20047;-69
2023/10/22 08:16:23;;;;;;;6.43;2.33;;;11.50;99.90;;;;;;5073055;28;20052;-69
2023/10/22 08:18:51;;;;;;;8.80;2.88;;;11.50;99.90;;;;;;5070318;28;20047;-68
2023/10/22 08:21:18;;;;;;;6.88;2.30;;;11.50;99.90;;;;;;5090292;28;20063;-69
2023/10/22 08:23:47;;;;;;;7.00;2.30;;;11.50;99.90;;;;;;5073388;28;20055;-69
2023/10/22 08:26:14;;;;;;;7.57;2.28;;;11.60;99.90;;;;;;5063956;28;20075;-69
2023/10/22 08:28:40;;;;;;;8.93;2.63;;;11.80;99.90;;;;;;5069371;28;20162;-69
2023/10/22 08:31:07;;;;;;;6.95;2.80;;;11.70;99.90;;;;;;5068673;28;20089;-69
2023/10/22 08:33:36;;;;;;;6.50;2.30;;;11.80;99.90;;;;;;5073396;28;20048;-69
2023/10/22 08:36:07;;;;;;;8.38;2.33;;;11.90;99.90;;;;;;5071899;28;20554;-69
2023/10/22 08:38:34;;;;;;;7.97;2.63;;;11.90;99.90;;;;;;5070196;28;20511;-68
2023/10/22 08:41:02;;;;;;;4.90;1.88;;;12.00;99.90;;;;;;5070518;28;20051;-68
2023/10/22 08:43:32;;;;;;;4.95;1.70;;;12.00;99.90;;;;;;5070435;28;20048;-69
2023/10/22 08:45:59;;;;;;;6.22;2.00;;;12.10;99.90;;;;;;5072348;28;20117;-68
2023/10/22 08:48:27;;;;;;;8.40;2.72;;;12.10;99.90;;;;;;5073816;28;20052;-68
2023/10/22 08:50:57;;;;;;;4.63;1.77;;;12.20;99.90;;;;;;5067757;28;20064;-69
2023/10/22 08:53:24;;;;;;;3.80;1.70;;;12.20;99.90;;;;;;5073673;28;20422;-69
2023/10/22 08:55:51;;;;;;;9.77;1.80;;;12.20;99.90;;;;;;5072046;28;20052;-70
2023/10/22 08:58:20;;;;;;;5.07;1.92;;;12.30;99.90;;;;;;5073090;28;20040;-69
2023/10/22 09:00:48;;;;;;;5.35;1.75;;;12.30;99.90;;;;;;5070405;28;20113;-68
2023/10/22 09:03:16;;;;;;;4.45;1.73;;;12.40;99.90;;;;;;5072127;28;20401;-69
2023/10/22 09:05:43;;;;;;;4.22;1.67;;;12.40;99.90;;;;;;5072847;28;20408;-69
2023/10/22 09:08:12;;;;;;;11.00;2.45;;;12.40;99.90;;;;;;5064735;28;20048;-68
2023/10/22 09:10:39;;;;;;;6.28;2.10;;;12.40;99.90;;;;;;5072538;28;20399;-69
2023/10/22 09:13:16;;;;;;;5.38;1.60;;;12.40;99.90;;;;;;5071523;28;20601;-69
2023/10/22 09:15:44;;;;;;;7.80;1.70;;;12.40;99.90;;;;;;5066373;28;20044;-68
2023/10/22 09:18:12;;;;;;;6.03;1.20;;;12.40;99.90;;;;;;5091165;28;20051;-69
2023/10/22 09:20:39;;;;;;;5.97;1.80;;;12.50;99.90;;;;;;5073471;28;20050;-69
2023/10/22 09:23:18;;;;;;;5.22;1.55;;;12.50;99.90;;;;;;5061531;28;20109;-68
2023/10/22 09:25:46;;;;;;;5.10;1.30;;;12.60;99.90;;;;;;5069055;28;20052;-67
2023/10/22 09:28:15;;;;;;;7.60;1.85;;;12.70;99.90;;;;;;5091049;28;20094;-69
2023/10/22 09:30:42;;;;;;;4.63;1.30;;;12.80;99.90;;;;;;5069151;28;20547;-68
2023/10/22 09:33:10;;;;;;;3.70;1.10;;;12.90;99.90;;;;;;5070574;28;20040;-67
2023/10/22 09:35:37;;;;;;;3.05;1.25;;;13.10;99.90;;;;;;5073958;28;20458;-70
2023/10/22 09:38:04;;;;;;;5.70;1.30;;;13.30;99.90;;;;;;5068844;28;20043;-70
2023/10/22 09:40:34;;;;;;;6.15;1.20;;;13.60;99.90;;;;;;5072454;28;20496;-68
2023/10/22 09:43:04;;;;;;;5.03;1.35;;;14.00;99.90;;;;;;5071793;28;20048;-70
2023/10/22 09:45:32;;;;;;;2.28;0.93;;;15.40;99.90;;;;;;5072187;28;20553;-68
2023/10/22 09:48:06;;;;;;;3.30;1.00;;;17.30;99.90;;;;;;5071682;28;20056;-67
2023/10/22 09:50:36;;;;;;;3.13;1.48;;;18.60;99.90;;;;;;5071227;28;20097;-67
2023/10/22 09:53:05;;;;;;;3.23;1.00;;;19.50;99.90;;;;;;5071682;28;20157;-69
2023/10/22 09:55:36;;;;;;;2.40;0.73;;;20.20;99.90;;;;;;5068317;28;20056;-69
2023/10/22 09:58:04;;;;;;;4.63;1.20;;;20.00;99.90;;;;;;5069890;28;20507;-68
2023/10/22 10:00:31;;;;;;;3.70;0.85;;;20.90;99.90;;;;;;5065424;28;20126;-69
2023/10/22 10:02:59;;;;;;;2.35;0.77;;;21.30;99.90;;;;;;5086405;28;20047;-68
2023/10/22 10:05:26;;;;;;;2.90;0.85;;;21.70;99.90;;;;;;5059044;28;20041;-69
2023/10/22 10:07:53;;;;;;;2.10;0.68;;;21.80;99.90;;;;;;5066242;28;20060;-69
2023/10/22 10:10:24;;;;;;;4.38;0.77;;;22.50;99.90;;;;;;5089975;28;20044;-69
2023/10/22 10:12:52;;;;;;;4.70;0.80;;;22.40;99.90;;;;;;5067934;28;20100;-69
2023/10/22 10:15:33;;;;;;;6.70;1.08;;;22.40;98.40;;;;;;5067313;28;20051;-68
2023/10/22 10:18:01;;;;;;;1.98;0.68;;;22.20;97.50;;;;;;5069527;28;20130;-70
2023/10/22 10:20:30;;;;;;;3.58;1.00;;;22.70;96.90;;;;;;5064887;28;20052;-68
2023/10/22 10:23:08;;;;;;;2.47;0.90;;;22.10;97.40;;;;;;5068096;28;20052;-68
2023/10/22 10:25:38;;;;;;;2.92;1.00;;;21.40;96.30;;;;;;5058276;28;20076;-69
2023/10/22 10:28:07;;;;;;;2.47;0.85;;;21.40;97.60;;;;;;5084001;28;20052;-69
2023/10/22 10:30:34;;;;;;;2.72;0.80;;;21.50;98.10;;;;;;5069926;28;20559;-68
2023/10/22 10:33:02;;;;;;;2.33;0.60;;;20.80;96.60;;;;;;5089122;28;20048;-70
2023/10/22 10:35:29;;;;;;;2.47;0.68;;;19.90;99.60;;;;;;5070516;28;20507;-70
2023/10/22 10:38:22;;;;;;;3.03;0.73;;;19.50;99.90;;;;;;5071623;28;20117;-70
2023/10/22 10:40:50;;;;;;;1.95;0.70;;;20.00;99.90;;;;;;5067007;28;20495;-69
2023/10/22 10:43:19;;;;;;;3.22;1.10;;;20.40;99.90;;;;;;5067413;28;20492;-69
2023/10/22 10:46:23;;;;;;;2.40;0.60;;;19.60;98.70;;;;;;5089796;28;20063;-69
2023/10/22 10:48:52;;;;;;;2.78;0.75;;;19.00;98.20;;;;;;5065872;28;20492;-67
2023/10/22 10:51:20;;;;;;;3.42;0.80;;;18.80;99.90;;;;;;5085778;28;20412;-68
2023/10/22 10:54:17;;;;;;;1.85;0.60;;;18.60;99.90;;;;;;5087236;28;20536;-69
2023/10/22 10:57:02;;;;;;;2.92;1.00;;;18.30;99.90;;;;;;5068525;28;20412;-69
2023/10/22 10:59:31;;;;;;;2.85;0.70;;;17.90;99.90;;;;;;5069209;28;20048;-68
2023/10/22 11:02:03;;;;;;;1.73;0.50;;;17.90;99.90;;;;;;5047041;28;20132;-69
2023/10/22 11:04:31;;;;;;;3.38;0.70;;;17.90;99.90;;;;;;5066506;28;20622;-69
2023/10/22 11:06:58;;;;;;;4.13;0.77;;;18.70;99.90;;;;;;5050877;28;20059;-68
2023/10/22 11:09:25;;;;;;;3.25;0.80;;;19.20;99.90;;;;;;5046635;28;20056;-69
2023/10/22 11:12:00;;;;;;;1.70;0.65;;;19.50;99.90;;;;;;5049772;28;20044;-69
2023/10/22 11:14:27;;;;;;;4.22;1.00;;;19.10;99.60;;;;;;5048699;28;20135;-69
2023/10/22 11:16:57;;;;;;;3.78;1.52;;;18.60;99.90;;;;;;5050376;28;20060;-68
2023/10/22 11:19:25;;;;;;;3.47;0.95;;;18.50;99.90;;;;;;5050475;28;20044;-68
2023/10/22 11:21:54;;;;;;;3.95;0.77;;;18.20;99.90;;;;;;5049689;28;20090;-69
2023/10/22 11:24:22;;;;;;;2.60;1.00;;;17.70;99.90;;;;;;5068723;28;20051;-69
2023/10/22 11:26:50;;;;;;;2.63;0.82;;;17.40;99.90;;;;;;5053465;28;20056;-69
2023/10/22 11:29:18;;;;;;;4.07;0.68;;;17.30;99.90;;;;;;5050040;28;20481;-67
2023/10/22 11:31:57;;;;;;;1.80;0.60;;;17.20;99.90;;;;;;5052366;28;20105;-68
2023/10/22 11:34:27;;;;;;;4.72;0.60;;;17.40;99.90;;;;;;5054210;28;20480;-68
2023/10/22 11:36:57;;;;;;;;;;;18.40;99.90;;;;;;5053484;28;20053;-68
2023/10/22 11:39:32;;;;;;;;;;;19.00;99.90;;;;;;5052527;28;20457;-68
2023/10/22 11:41:59;;;;;;;4.50;0.60;;;18.30;99.90;;;;;;5054687;28;19999;-68
2023/10/22 11:44:31;;;;;;;2.75;0.57;;;19.00;99.90;;;;;;5052825;28;20451;-68
2023/10/22 11:47:24;;;;;;;1.23;0.50;;;19.30;99.90;;;;;;5071167;28;20070;-68
2023/10/22 11:49:51;;;;;;;1.55;0.50;;;18.70;99.00;;;;;;5049518;28;20127;-67
2023/10/22 11:52:19;;;;;;;2.13;0.60;;;17.40;99.90;;;;;;5046100;28;20040;-69
2023/10/22 11:54:46;;;;;;;2.58;0.55;;;16.90;99.90;;;;;;5054203;28;20044;-69
2023/10/22 11:57:13;;;;;;;2.30;0.50;;;16.40;99.90;;;;;;5052632;28;20542;-68
2023/10/22 11:59:41;;;;;;;1.35;0.60;;;16.20;99.90;;;;;;5049914;28;20059;-68
2023/10/22 12:02:09;;;;;;;2.50;0.40;;;16.10;99.90;;;;;;5068569;28;20048;-68
2023/10/22 12:04:36;;;;;;;1.55;0.60;;;15.90;99.90;;;;;;5071634;28;20168;-68
2023/10/22 12:07:03;;;;;;;1.98;0.50;;;15.80;99.90;;;;;;5059638;28;20105;-68
2023/10/22 12:09:30;;;;;;;2.10;0.70;;;16.00;99.90;;;;;;5061644;28;20063;-69
2023/10/22 12:11:57;;;;;;;1.42;0.60;;;16.10;99.90;;;;;;5064634;28;20121;-68
2023/10/22 12:14:24;;;;;;;1.25;0.55;;;17.00;99.90;;;;;;5088900;28;20044;-68
2023/10/22 12:16:51;;;;;;;1.45;0.40;;;17.80;99.90;;;;;;5080822;28;20048;-68
2023/10/22 12:19:20;;;;;;;1.60;0.60;;;18.30;99.90;;;;;;5059265;28;20064;-68
2023/10/22 12:21:46;;;;;;;2.88;0.50;;;18.30;99.90;;;;;;5073529;28;20538;-68
2023/10/22 12:24:13;;;;;;;1.23;0.40;;;18.60;99.90;;;;;;5085051;28;20512;-67
2023/10/22 12:26:40;;;;;;;1.33;0.50;;;19.40;99.90;;;;;;5091796;28;20453;-68
2023/10/22 12:29:07;;;;;;;2.90;0.52;;;20.90;99.90;;;;;;5068181;28;20064;-68
2023/10/22 12:31:34;;;;;;;0.98;0.40;;;22.30;97.60;;;;;;5088049;28;20604;-68
2023/10/22 12:34:02;;;;;;;3.03;0.90;;;23.10;95.10;;;;;;5070539;28;20133;-67
2023/10/22 12:36:31;;;;;;;0.90;0.30;;;23.60;94.00;;;;;;5068535;28;20055;-69
2023/10/22 12:38:58;;;;;;;3.00;1.00;;;24.70;91.80;;;;;;5068856;28;20075;-69
2023/10/22 12:41:25;;;;;;;4.25;1.35;;;24.20;90.90;;;;;;5068148;28;20077;-68
2023/10/22 12:43:52;;;;;;;4.30;0.65;;;23.40;92.00;;;;;;5068725;28;20048;-69
2023/10/22 12:46:19;;;;;;;1.88;0.80;;;22.30;91.50;;;;;;5065434;28;20056;-68
2023/10/22 12:48:46;;;;;;;3.20;1.70;;;20.90;91.70;;;;;;5070018;28;20048;-68
2023/10/22 12:51:13;;;;;;;3.50;0.77;;;20.80;91.80;;;;;;5069024;28;20055;-68
2023/10/22 12:53:43;;;;;;;3.53;0.93;;;21.30;91.90;;;;;;5069467;28;20040;-68